sensor_id;sensor_type;location;lat;lon;timestamp;temperature;humidity
2459;DHT22;1241;50.920;6.936;2023-05-07T00:01:41;16.90;99.90
2459;DHT22;1241;50.920;6.936;2023-05-07T00:04:07;16.80;99.90
2459;DHT22;1241;50.920;6.936;2023-05-07T00:06:33;16.90;99.90
2459;DHT22;1241;50.920;6.936;2023-05-07T00:08:59;16.90;99.90
2459;DHT22;1241;50.920;6.936;2023-05-07T00:11:26;16.80;99.90
2459;DHT22;1241;50.920;6.936;2023-05-07T00:13:53;16.80;99.90
2459;DHT22;1241;50.920;6.936;2023-05-07T00:16:18;16.70;99.90
2459;DHT22;1241;50.920;6.936;2023-05-07T00:18:44;16.70;99.90
2459;DHT22;1241;50.920;6.936;2023-05-07T00:21:10;16.80;99.90
2459;DHT22;1241;50.920;6.936;2023-05-07T00:23:36;16.70;99.90
2459;DHT22;1241;50.920;6.936;2023-05-07T00:26:03;16.60;99.90
2459;DHT22;1241;50.920;6.936;2023-05-07T00:28:28;16.60;99.90
2459;DHT22;1241;50.920;6.936;2023-05-07T00:30:54;16.60;99.90
2459;DHT22;1241;50.920;6.936;2023-05-07T00:33:20;16.60;99.90
2459;DHT22;1241;50.920;6.936;2023-05-07T00:35:46;16.50;99.90
2459;DHT22;1241;50.920;6.936;2023-05-07T00:38:12;16.40;99.90
2459;DHT22;1241;50.920;6.936;2023-05-07T00:40:37;16.40;99.90
2459;DHT22;1241;50.920;6.936;2023-05-07T00:43:03;16.40;99.90
2459;DHT22;1241;50.920;6.936;2023-05-07T00:45:29;16.40;99.90
2459;DHT22;1241;50.920;6.936;2023-05-07T00:48:00;16.40;99.90
2459;DHT22;1241;50.920;6.936;2023-05-07T00:50:27;16.40;99.90
2459;DHT22;1241;50.920;6.936;2023-05-07T00:52:53;16.40;99.90
2459;DHT22;1241;50.920;6.936;2023-05-07T00:55:20;16.40;99.90
2459;DHT22;1241;50.920;6.936;2023-05-07T00:57:46;16.30;99.90
2459;DHT22;1241;50.920;6.936;2023-05-07T01:00:12;16.40;99.90
2459;DHT22;1241;50.920;6.936;2023-05-07T01:02:39;16.30;99.90
2459;DHT22;1241;50.920;6.936;2023-05-07T01:05:05;16.20;99.90
2459;DHT22;1241;50.920;6.936;2023-05-07T01:07:33;16.20;99.90
2459;DHT22;1241;50.920;6.936;2023-05-07T01:10:00;16.10;99.90
2459;DHT22;1241;50.920;6.936;2023-05-07T01:12:28;16.20;99.90
2459;DHT22;1241;50.920;6.936;2023-05-07T01:14:55;16.10;99.90
2459;DHT22;1241;50.920;6.936;2023-05-07T01:17:20;16.00;99.90
2459;DHT22;1241;50.920;6.936;2023-05-07T01:19:46;16.10;99.90
2459;DHT22;1241;50.920;6.936;2023-05-07T01:22:15;16.10;99.90
2459;DHT22;1241;50.920;6.936;2023-05-07T01:24:48;16.10;99.90
2459;DHT22;1241;50.920;6.936;2023-05-07T01:27:16;16.10;99.90
2459;DHT22;1241;50.920;6.936;2023-05-07T01:29:42;16.10;99.90
2459;DHT22;1241;50.920;6.936;2023-05-07T01:32:08;16.10;99.90
2459;DHT22;1241;50.920;6.936;2023-05-07T01:34:36;16.20;99.90
2459;DHT22;1241;50.920;6.936;2023-05-07T01:37:02;16.20;99.90
2459;DHT22;1241;50.920;6.936;2023-05-07T01:39:29;16.20;99.90
2459;DHT22;1241;50.920;6.936;2023-05-07T01:41:56;16.30;99.90
2459;DHT22;1241;50.920;6.936;2023-05-07T01:44:23;16.30;99.90
2459;DHT22;1241;50.920;6.936;2023-05-07T01:46:50;16.30;99.90
2459;DHT22;1241;50.920;6.936;2023-05-07T01:49:16;16.40;99.90
2459;DHT22;1241;50.920;6.936;2023-05-07T01:51:42;16.40;99.90
2459;DHT22;1241;50.920;6.936;2023-05-07T01:54:09;16.40;99.90
2459;DHT22;1241;50.920;6.936;2023-05-07T01:56:35;16.40;99.90
2459;DHT22;1241;50.920;6.936;2023-05-07T01:59:02;16.30;99.90
2459;DHT22;1241;50.920;6.936;2023-05-07T02:01:28;16.30;99.90
2459;DHT22;1241;50.920;6.936;2023-05-07T02:03:54;16.30;99.90
2459;DHT22;1241;50.920;6.936;2023-05-07T02:06:24;16.30;99.90
2459;DHT22;1241;50.920;6.936;2023-05-07T02:08:53;16.10;99.90
2459;DHT22;1241;50.920;6.936;2023-05-07T02:11:19;16.10;99.90
2459;DHT22;1241;50.920;6.936;2023-05-07T02:13:45;16.10;99.90
2459;DHT22;1241;50.920;6.936;2023-05-07T02:16:11;15.90;99.90
2459;DHT22;1241;50.920;6.936;2023-05-07T02:18:40;15.90;99.90
2459;DHT22;1241;50.920;6.936;2023-05-07T02:21:05;15.90;99.90
2459;DHT22;1241;50.920;6.936;2023-05-07T02:23:31;15.80;99.90
2459;DHT22;1241;50.920;6.936;2023-05-07T02:25:58;15.70;99.90
2459;DHT22;1241;50.920;6.936;2023-05-07T02:28:24;15.70;99.90
2459;DHT22;1241;50.920;6.936;2023-05-07T02:30:57;15.60;99.90
2459;DHT22;1241;50.920;6.936;2023-05-07T02:33:28;15.50;99.90
2459;DHT22;1241;50.920;6.936;2023-05-07T02:35:54;15.50;99.90
2459;DHT22;1241;50.920;6.936;2023-05-07T02:38:19;15.40;99.90
2459;DHT22;1241;50.920;6.936;2023-05-07T02:40:45;15.30;99.90
2459;DHT22;1241;50.920;6.936;2023-05-07T02:43:11;15.30;99.90
2459;DHT22;1241;50.920;6.936;2023-05-07T02:45:39;15.30;99.90
2459;DHT22;1241;50.920;6.936;2023-05-07T02:48:06;15.30;99.90
2459;DHT22;1241;50.920;6.936;2023-05-07T02:50:32;15.30;99.90
2459;DHT22;1241;50.920;6.936;2023-05-07T02:52:58;15.20;99.90
2459;DHT22;1241;50.920;6.936;2023-05-07T02:55:25;15.20;99.90
2459;DHT22;1241;50.920;6.936;2023-05-07T02:57:50;15.30;99.90
2459;DHT22;1241;50.920;6.936;2023-05-07T03:00:18;15.30;99.90
2459;DHT22;1241;50.920;6.936;2023-05-07T03:02:54;15.40;99.90
2459;DHT22;1241;50.920;6.936;2023-05-07T03:05:20;15.50;99.90
2459;DHT22;1241;50.920;6.936;2023-05-07T03:07:46;15.50;99.90
2459;DHT22;1241;50.920;6.936;2023-05-07T03:10:13;15.50;99.90
2459;DHT22;1241;50.920;6.936;2023-05-07T03:12:39;15.50;99.90
2459;DHT22;1241;50.920;6.936;2023-05-07T03:15:05;15.50;99.90
2459;DHT22;1241;50.920;6.936;2023-05-07T03:17:31;15.50;99.90
2459;DHT22;1241;50.920;6.936;2023-05-07T03:19:57;15.40;99.90
2459;DHT22;1241;50.920;6.936;2023-05-07T03:22:23;15.40;99.90
2459;DHT22;1241;50.920;6.936;2023-05-07T03:24:49;15.40;99.90
2459;DHT22;1241;50.920;6.936;2023-05-07T03:27:15;15.30;99.90
2459;DHT22;1241;50.920;6.936;2023-05-07T03:29:41;15.30;99.90
2459;DHT22;1241;50.920;6.936;2023-05-07T03:32:07;15.20;99.90
2459;DHT22;1241;50.920;6.936;2023-05-07T03:34:33;15.20;99.90
2459;DHT22;1241;50.920;6.936;2023-05-07T03:36:59;15.10;99.90
2459;DHT22;1241;50.920;6.936;2023-05-07T03:39:25;15.10;99.90
2459;DHT22;1241;50.920;6.936;2023-05-07T03:41:50;15.10;99.90
2459;DHT22;1241;50.920;6.936;2023-05-07T03:44:16;15.10;99.90
2459;DHT22;1241;50.920;6.936;2023-05-07T03:46:42;15.20;99.90
2459;DHT22;1241;50.920;6.936;2023-05-07T03:49:10;15.20;99.90
2459;DHT22;1241;50.920;6.936;2023-05-07T03:51:35;15.20;99.90
2459;DHT22;1241;50.920;6.936;2023-05-07T03:54:03;15.30;99.90
2459;DHT22;1241;50.920;6.936;2023-05-07T03:56:31;15.30;99.90
2459;DHT22;1241;50.920;6.936;2023-05-07T03:58:58;15.30;99.90
2459;DHT22;1241;50.920;6.936;2023-05-07T04:01:23;15.30;99.90
2459;DHT22;1241;50.920;6.936;2023-05-07T04:03:50;15.30;99.90
2459;DHT22;1241;50.920;6.936;2023-05-07T04:06:16;15.30;99.90
2459;DHT22;1241;50.920;6.936;2023-05-07T04:08:44;15.40;99.90
2459;DHT22;1241;50.920;6.936;2023-05-07T04:11:10;15.40;99.90
2459;DHT22;1241;50.920;6.936;2023-05-07T04:13:37;15.30;99.90
2459;DHT22;1241;50.920;6.936;2023-05-07T04:16:05;15.40;99.90
2459;DHT22;1241;50.920;6.936;2023-05-07T04:18:34;15.40;99.90
2459;DHT22;1241;50.920;6.936;2023-05-07T04:20:59;15.50;99.90
2459;DHT22;1241;50.920;6.936;2023-05-07T04:23:25;15.60;99.90
2459;DHT22;1241;50.920;6.936;2023-05-07T04:25:52;15.60;99.90
2459;DHT22;1241;50.920;6.936;2023-05-07T04:28:31;15.70;99.90
2459;DHT22;1241;50.920;6.936;2023-05-07T04:30:57;15.80;99.90
2459;DHT22;1241;50.920;6.936;2023-05-07T04:33:23;15.80;99.90
2459;DHT22;1241;50.920;6.936;2023-05-07T04:35:50;15.90;99.90
2459;DHT22;1241;50.920;6.936;2023-05-07T04:38:15;16.00;99.90
2459;DHT22;1241;50.920;6.936;2023-05-07T04:40:42;16.10;99.90
2459;DHT22;1241;50.920;6.936;2023-05-07T04:43:10;16.20;99.90
2459;DHT22;1241;50.920;6.936;2023-05-07T04:45:43;16.30;99.90
2459;DHT22;1241;50.920;6.936;2023-05-07T04:48:09;16.30;99.90
2459;DHT22;1241;50.920;6.936;2023-05-07T04:50:37;16.40;99.90
2459;DHT22;1241;50.920;6.936;2023-05-07T04:53:03;16.40;99.90
2459;DHT22;1241;50.920;6.936;2023-05-07T04:55:29;16.40;99.90
2459;DHT22;1241;50.920;6.936;2023-05-07T04:57:56;16.40;99.90
2459;DHT22;1241;50.920;6.936;2023-05-07T05:00:22;16.50;99.90
2459;DHT22;1241;50.920;6.936;2023-05-07T05:02:50;16.50;99.90
2459;DHT22;1241;50.920;6.936;2023-05-07T05:05:19;16.50;99.90
2459;DHT22;1241;50.920;6.936;2023-05-07T05:07:47;16.50;99.90
2459;DHT22;1241;50.920;6.936;2023-05-07T05:10:12;16.40;99.90
2459;DHT22;1241;50.920;6.936;2023-05-07T05:12:40;16.30;99.90
2459;DHT22;1241;50.920;6.936;2023-05-07T05:15:06;16.30;99.90
2459;DHT22;1241;50.920;6.936;2023-05-07T05:17:33;16.30;99.90
2459;DHT22;1241;50.920;6.936;2023-05-07T05:20:01;16.40;99.90
2459;DHT22;1241;50.920;6.936;2023-05-07T05:22:28;16.40;99.90
2459;DHT22;1241;50.920;6.936;2023-05-07T05:24:57;16.40;99.90
2459;DHT22;1241;50.920;6.936;2023-05-07T05:27:23;16.50;99.90
2459;DHT22;1241;50.920;6.936;2023-05-07T05:29:49;16.60;99.90
2459;DHT22;1241;50.920;6.936;2023-05-07T05:32:15;16.60;99.90
2459;DHT22;1241;50.920;6.936;2023-05-07T05:34:41;16.70;99.90
2459;DHT22;1241;50.920;6.936;2023-05-07T05:37:07;16.80;99.90
2459;DHT22;1241;50.920;6.936;2023-05-07T05:39:33;16.90;99.90
2459;DHT22;1241;50.920;6.936;2023-05-07T05:41:59;17.00;99.90
2459;DHT22;1241;50.920;6.936;2023-05-07T05:44:26;17.10;99.90
2459;DHT22;1241;50.920;6.936;2023-05-07T05:46:51;17.10;99.90
2459;DHT22;1241;50.920;6.936;2023-05-07T05:49:17;17.10;99.90
2459;DHT22;1241;50.920;6.936;2023-05-07T05:51:44;17.20;99.90
2459;DHT22;1241;50.920;6.936;2023-05-07T05:54:11;17.10;99.90
2459;DHT22;1241;50.920;6.936;2023-05-07T05:56:37;17.20;99.90
2459;DHT22;1241;50.920;6.936;2023-05-07T05:59:03;17.30;99.90
2459;DHT22;1241;50.920;6.936;2023-05-07T06:01:29;17.50;99.90
2459;DHT22;1241;50.920;6.936;2023-05-07T06:03:57;17.50;99.90
2459;DHT22;1241;50.920;6.936;2023-05-07T06:06:23;17.50;99.90
2459;DHT22;1241;50.920;6.936;2023-05-07T06:08:48;17.70;99.90
2459;DHT22;1241;50.920;6.936;2023-05-07T06:11:21;17.90;99.90
2459;DHT22;1241;50.920;6.936;2023-05-07T06:13:47;18.00;99.90
2459;DHT22;1241;50.920;6.936;2023-05-07T06:16:12;18.20;99.90
2459;DHT22;1241;50.920;6.936;2023-05-07T06:18:38;18.40;99.90
2459;DHT22;1241;50.920;6.936;2023-05-07T06:21:04;18.60;99.90
2459;DHT22;1241;50.920;6.936;2023-05-07T06:23:33;18.80;99.90
2459;DHT22;1241;50.920;6.936;2023-05-07T06:26:00;18.70;99.90
2459;DHT22;1241;50.920;6.936;2023-05-07T06:28:32;18.70;99.90
2459;DHT22;1241;50.920;6.936;2023-05-07T06:33:39;18.80;99.90
2459;DHT22;1241;50.920;6.936;2023-05-07T06:36:05;19.00;99.90
2459;DHT22;1241;50.920;6.936;2023-05-07T06:38:31;19.10;99.90
2459;DHT22;1241;50.920;6.936;2023-05-07T06:40:57;19.20;99.90
2459;DHT22;1241;50.920;6.936;2023-05-07T06:43:23;19.30;99.90
2459;DHT22;1241;50.920;6.936;2023-05-07T06:45:55;19.40;99.90
2459;DHT22;1241;50.920;6.936;2023-05-07T06:48:21;19.50;99.90
2459;DHT22;1241;50.920;6.936;2023-05-07T06:50:59;19.60;99.90
2459;DHT22;1241;50.920;6.936;2023-05-07T06:53:26;19.80;99.90
2459;DHT22;1241;50.920;6.936;2023-05-07T06:55:53;19.90;99.90
2459;DHT22;1241;50.920;6.936;2023-05-07T06:58:19;20.00;99.90
2459;DHT22;1241;50.920;6.936;2023-05-07T07:00:45;20.20;99.90
2459;DHT22;1241;50.920;6.936;2023-05-07T07:03:12;20.30;99.90
2459;DHT22;1241;50.920;6.936;2023-05-07T07:05:40;20.30;99.90
2459;DHT22;1241;50.920;6.936;2023-05-07T07:08:06;20.30;99.90
2459;DHT22;1241;50.920;6.936;2023-05-07T07:10:32;20.40;99.90
2459;DHT22;1241;50.920;6.936;2023-05-07T07:12:58;20.80;99.90
2459;DHT22;1241;50.920;6.936;2023-05-07T07:15:26;21.10;99.90
2459;DHT22;1241;50.920;6.936;2023-05-07T07:17:53;21.30;99.90
2459;DHT22;1241;50.920;6.936;2023-05-07T07:20:19;21.50;99.90
2459;DHT22;1241;50.920;6.936;2023-05-07T07:22:46;21.60;99.90
2459;DHT22;1241;50.920;6.936;2023-05-07T07:25:15;21.40;99.90
2459;DHT22;1241;50.920;6.936;2023-05-07T07:27:40;21.40;99.90
2459;DHT22;1241;50.920;6.936;2023-05-07T07:30:07;21.50;99.90
2459;DHT22;1241;50.920;6.936;2023-05-07T07:32:35;21.60;99.90
2459;DHT22;1241;50.920;6.936;2023-05-07T07:35:01;21.70;99.90
2459;DHT22;1241;50.920;6.936;2023-05-07T07:37:27;21.60;99.90
2459;DHT22;1241;50.920;6.936;2023-05-07T07:39:54;21.60;99.90
2459;DHT22;1241;50.920;6.936;2023-05-07T07:42:21;21.70;99.90
2459;DHT22;1241;50.920;6.936;2023-05-07T07:44:47;21.80;99.90
2459;DHT22;1241;50.920;6.936;2023-05-07T07:47:15;22.00;99.90
2459;DHT22;1241;50.920;6.936;2023-05-07T07:49:42;22.10;99.90
2459;DHT22;1241;50.920;6.936;2023-05-07T07:52:09;22.10;99.90
2459;DHT22;1241;50.920;6.936;2023-05-07T07:54:36;22.20;99.90
2459;DHT22;1241;50.920;6.936;2023-05-07T07:57:03;22.40;99.90
2459;DHT22;1241;50.920;6.936;2023-05-07T07:59:31;22.50;99.90
2459;DHT22;1241;50.920;6.936;2023-05-07T08:01:57;22.70;99.90
2459;DHT22;1241;50.920;6.936;2023-05-07T08:04:25;22.80;99.90
2459;DHT22;1241;50.920;6.936;2023-05-07T08:06:52;22.70;99.90
2459;DHT22;1241;50.920;6.936;2023-05-07T08:09:20;22.80;99.90
2459;DHT22;1241;50.920;6.936;2023-05-07T08:11:46;22.90;99.90
2459;DHT22;1241;50.920;6.936;2023-05-07T08:14:13;23.00;99.90
2459;DHT22;1241;50.920;6.936;2023-05-07T08:16:39;23.00;99.90
2459;DHT22;1241;50.920;6.936;2023-05-07T08:19:04;23.00;99.90
2459;DHT22;1241;50.920;6.936;2023-05-07T08:21:31;22.90;99.90
2459;DHT22;1241;50.920;6.936;2023-05-07T08:23:57;22.90;99.90
2459;DHT22;1241;50.920;6.936;2023-05-07T08:26:22;23.00;99.90
2459;DHT22;1241;50.920;6.936;2023-05-07T08:28:48;22.90;99.90
2459;DHT22;1241;50.920;6.936;2023-05-07T08:31:14;23.00;99.90
2459;DHT22;1241;50.920;6.936;2023-05-07T08:33:43;23.00;99.90
2459;DHT22;1241;50.920;6.936;2023-05-07T08:36:08;23.00;99.90
2459;DHT22;1241;50.920;6.936;2023-05-07T08:38:34;22.90;99.90
2459;DHT22;1241;50.920;6.936;2023-05-07T08:41:01;23.10;99.90
2459;DHT22;1241;50.920;6.936;2023-05-07T08:43:29;23.20;99.90
2459;DHT22;1241;50.920;6.936;2023-05-07T08:45:59;23.10;99.90
2459;DHT22;1241;50.920;6.936;2023-05-07T08:48:29;23.20;99.90
2459;DHT22;1241;50.920;6.936;2023-05-07T08:51:04;23.20;99.90
2459;DHT22;1241;50.920;6.936;2023-05-07T08:53:31;23.50;99.90
2459;DHT22;1241;50.920;6.936;2023-05-07T08:55:57;23.70;99.90
2459;DHT22;1241;50.920;6.936;2023-05-07T08:58:24;23.70;99.90
2459;DHT22;1241;50.920;6.936;2023-05-07T09:00:51;23.70;99.90
2459;DHT22;1241;50.920;6.936;2023-05-07T09:03:18;23.70;99.90
2459;DHT22;1241;50.920;6.936;2023-05-07T09:05:47;23.60;99.90
2459;DHT22;1241;50.920;6.936;2023-05-07T09:08:15;23.70;99.90
2459;DHT22;1241;50.920;6.936;2023-05-07T09:10:42;23.40;99.90
2459;DHT22;1241;50.920;6.936;2023-05-07T09:13:08;23.40;99.90
2459;DHT22;1241;50.920;6.936;2023-05-07T09:15:36;23.40;99.90
2459;DHT22;1241;50.920;6.936;2023-05-07T09:18:02;23.30;99.90
2459;DHT22;1241;50.920;6.936;2023-05-07T09:20:30;23.40;99.90
2459;DHT22;1241;50.920;6.936;2023-05-07T09:22:57;23.40;99.90
2459;DHT22;1241;50.920;6.936;2023-05-07T09:25:29;23.40;99.90
2459;DHT22;1241;50.920;6.936;2023-05-07T09:27:55;23.30;99.90
2459;DHT22;1241;50.920;6.936;2023-05-07T09:30:21;23.10;99.90
2459;DHT22;1241;50.920;6.936;2023-05-07T09:32:47;23.10;99.90
2459;DHT22;1241;50.920;6.936;2023-05-07T09:35:17;23.20;99.90
2459;DHT22;1241;50.920;6.936;2023-05-07T09:37:46;23.20;99.90
2459;DHT22;1241;50.920;6.936;2023-05-07T09:40:24;23.30;99.90
2459;DHT22;1241;50.920;6.936;2023-05-07T09:42:52;23.30;99.90
2459;DHT22;1241;50.920;6.936;2023-05-07T09:45:37;23.00;99.90
2459;DHT22;1241;50.920;6.936;2023-05-07T09:48:05;22.80;99.90
2459;DHT22;1241;50.920;6.936;2023-05-07T09:50:47;22.60;99.90
2459;DHT22;1241;50.920;6.936;2023-05-07T09:53:14;22.60;99.90
2459;DHT22;1241;50.920;6.936;2023-05-07T09:55:41;22.70;99.90
2459;DHT22;1241;50.920;6.936;2023-05-07T09:58:07;22.80;99.90
2459;DHT22;1241;50.920;6.936;2023-05-07T10:00:35;22.80;99.90
2459;DHT22;1241;50.920;6.936;2023-05-07T10:03:09;22.80;99.90
2459;DHT22;1241;50.920;6.936;2023-05-07T10:05:43;22.90;99.90
2459;DHT22;1241;50.920;6.936;2023-05-07T10:08:11;23.10;99.90
2459;DHT22;1241;50.920;6.936;2023-05-07T10:10:38;23.30;99.90
2459;DHT22;1241;50.920;6.936;2023-05-07T10:13:07;23.40;99.90
2459;DHT22;1241;50.920;6.936;2023-05-07T10:15:37;23.40;99.90
2459;DHT22;1241;50.920;6.936;2023-05-07T10:18:06;23.60;99.90
2459;DHT22;1241;50.920;6.936;2023-05-07T10:20:34;23.90;99.90
2459;DHT22;1241;50.920;6.936;2023-05-07T10:23:04;24.10;99.90
2459;DHT22;1241;50.920;6.936;2023-05-07T10:25:37;24.30;99.90
2459;DHT22;1241;50.920;6.936;2023-05-07T10:28:11;24.30;99.90
2459;DHT22;1241;50.920;6.936;2023-05-07T10:31:10;24.30;99.90
2459;DHT22;1241;50.920;6.936;2023-05-07T10:33:46;24.40;99.90
2459;DHT22;1241;50.920;6.936;2023-05-07T10:36:13;24.50;99.90
2459;DHT22;1241;50.920;6.936;2023-05-07T10:38:39;24.30;99.90
2459;DHT22;1241;50.920;6.936;2023-05-07T10:41:06;24.30;99.90
2459;DHT22;1241;50.920;6.936;2023-05-07T10:43:43;24.10;99.90
2459;DHT22;1241;50.920;6.936;2023-05-07T10:46:20;23.80;99.90
2459;DHT22;1241;50.920;6.936;2023-05-07T10:52:12;23.90;99.90
2459;DHT22;1241;50.920;6.936;2023-05-07T10:54:47;24.20;99.90
2459;DHT22;1241;50.920;6.936;2023-05-07T10:57:36;24.40;99.90
2459;DHT22;1241;50.920;6.936;2023-05-07T11:05:33;25.60;99.90
2459;DHT22;1241;50.920;6.936;2023-05-07T11:08:09;26.00;99.90
2459;DHT22;1241;50.920;6.936;2023-05-07T11:10:51;26.40;99.90
2459;DHT22;1241;50.920;6.936;2023-05-07T11:13:44;26.80;99.90
2459;DHT22;1241;50.920;6.936;2023-05-07T11:16:20;27.20;99.90
2459;DHT22;1241;50.920;6.936;2023-05-07T11:18:53;27.50;99.90
2459;DHT22;1241;50.920;6.936;2023-05-07T11:24:14;27.70;99.90
2459;DHT22;1241;50.920;6.936;2023-05-07T11:27:04;27.70;99.90
2459;DHT22;1241;50.920;6.936;2023-05-07T11:29:30;27.60;99.90
2459;DHT22;1241;50.920;6.936;2023-05-07T11:32:03;27.50;99.90
2459;DHT22;1241;50.920;6.936;2023-05-07T11:34:34;27.50;99.90
2459;DHT22;1241;50.920;6.936;2023-05-07T11:37:01;27.50;99.90
2459;DHT22;1241;50.920;6.936;2023-05-07T11:39:46;27.40;99.90
2459;DHT22;1241;50.920;6.936;2023-05-07T11:42:34;27.00;99.90
2459;DHT22;1241;50.920;6.936;2023-05-07T11:45:01;26.90;99.90
2459;DHT22;1241;50.920;6.936;2023-05-07T11:47:30;26.90;99.90
2459;DHT22;1241;50.920;6.936;2023-05-07T11:49:56;26.80;99.90
2459;DHT22;1241;50.920;6.936;2023-05-07T11:52:23;26.80;99.90
2459;DHT22;1241;50.920;6.936;2023-05-07T11:54:54;26.90;99.60
2459;DHT22;1241;50.920;6.936;2023-05-07T11:57:21;26.90;99.90
2459;DHT22;1241;50.920;6.936;2023-05-07T11:59:46;26.90;98.50
2459;DHT22;1241;50.920;6.936;2023-05-07T12:02:14;26.80;97.60
2459;DHT22;1241;50.920;6.936;2023-05-07T12:04:41;26.60;98.90
2459;DHT22;1241;50.920;6.936;2023-05-07T12:07:11;26.40;99.90
2459;DHT22;1241;50.920;6.936;2023-05-07T12:09:38;26.40;99.90
2459;DHT22;1241;50.920;6.936;2023-05-07T12:12:04;26.40;99.90
2459;DHT22;1241;50.920;6.936;2023-05-07T12:14:30;26.40;99.90
2459;DHT22;1241;50.920;6.936;2023-05-07T12:16:57;26.50;99.10
2459;DHT22;1241;50.920;6.936;2023-05-07T12:19:24;26.60;98.50
2459;DHT22;1241;50.920;6.936;2023-05-07T12:21:50;26.60;98.70
2459;DHT22;1241;50.920;6.936;2023-05-07T12:24:19;26.70;99.00
2459;DHT22;1241;50.920;6.936;2023-05-07T12:26:46;26.90;98.30
2459;DHT22;1241;50.920;6.936;2023-05-07T12:29:12;27.00;97.40
2459;DHT22;1241;50.920;6.936;2023-05-07T12:31:43;27.10;96.90
2459;DHT22;1241;50.920;6.936;2023-05-07T12:34:11;27.00;98.10
2459;DHT22;1241;50.920;6.936;2023-05-07T12:36:38;26.90;97.00
2459;DHT22;1241;50.920;6.936;2023-05-07T12:39:05;26.80;96.70
2459;DHT22;1241;50.920;6.936;2023-05-07T12:41:36;26.50;97.40
2459;DHT22;1241;50.920;6.936;2023-05-07T12:44:17;26.10;98.00
2459;DHT22;1241;50.920;6.936;2023-05-07T12:46:42;25.80;99.90
2459;DHT22;1241;50.920;6.936;2023-05-07T12:49:08;25.70;99.90
2459;DHT22;1241;50.920;6.936;2023-05-07T12:51:35;25.50;99.90
2459;DHT22;1241;50.920;6.936;2023-05-07T12:54:01;25.20;99.90
2459;DHT22;1241;50.920;6.936;2023-05-07T12:56:26;25.00;99.90
2459;DHT22;1241;50.920;6.936;2023-05-07T12:58:57;24.90;99.90
2459;DHT22;1241;50.920;6.936;2023-05-07T13:01:29;24.80;99.90
2459;DHT22;1241;50.920;6.936;2023-05-07T13:03:55;24.90;99.90
2459;DHT22;1241;50.920;6.936;2023-05-07T13:06:21;24.80;99.90
2459;DHT22;1241;50.920;6.936;2023-05-07T13:08:47;24.80;99.90
2459;DHT22;1241;50.920;6.936;2023-05-07T13:11:13;24.80;99.90
2459;DHT22;1241;50.920;6.936;2023-05-07T13:13:40;24.90;99.90
2459;DHT22;1241;50.920;6.936;2023-05-07T13:16:08;25.00;99.90
2459;DHT22;1241;50.920;6.936;2023-05-07T13:18:34;25.10;99.90
2459;DHT22;1241;50.920;6.936;2023-05-07T13:21:00;25.20;99.90
2459;DHT22;1241;50.920;6.936;2023-05-07T13:23:27;25.20;99.90
2459;DHT22;1241;50.920;6.936;2023-05-07T13:25:53;25.30;99.90
2459;DHT22;1241;50.920;6.936;2023-05-07T13:28:22;25.40;99.90
2459;DHT22;1241;50.920;6.936;2023-05-07T13:30:48;25.50;99.90
2459;DHT22;1241;50.920;6.936;2023-05-07T13:33:14;25.70;99.90
2459;DHT22;1241;50.920;6.936;2023-05-07T13:35:40;25.90;99.90
2459;DHT22;1241;50.920;6.936;2023-05-07T13:38:06;25.90;99.90
2459;DHT22;1241;50.920;6.936;2023-05-07T13:40:32;26.00;99.90
2459;DHT22;1241;50.920;6.936;2023-05-07T13:42:58;26.00;99.90
2459;DHT22;1241;50.920;6.936;2023-05-07T13:45:25;26.20;99.90
2459;DHT22;1241;50.920;6.936;2023-05-07T13:47:52;26.30;99.90
2459;DHT22;1241;50.920;6.936;2023-05-07T13:50:17;26.40;99.90
2459;DHT22;1241;50.920;6.936;2023-05-07T13:52:44;26.40;99.90
2459;DHT22;1241;50.920;6.936;2023-05-07T13:55:17;26.20;99.90
2459;DHT22;1241;50.920;6.936;2023-05-07T13:57:43;26.10;99.90
2459;DHT22;1241;50.920;6.936;2023-05-07T14:00:09;26.10;99.90
2459;DHT22;1241;50.920;6.936;2023-05-07T14:02:40;26.00;99.90
2459;DHT22;1241;50.920;6.936;2023-05-07T14:05:07;25.90;99.90
2459;DHT22;1241;50.920;6.936;2023-05-07T14:07:34;25.80;99.90
2459;DHT22;1241;50.920;6.936;2023-05-07T14:10:00;25.70;99.90
2459;DHT22;1241;50.920;6.936;2023-05-07T14:12:25;25.50;99.90
2459;DHT22;1241;50.920;6.936;2023-05-07T14:14:51;25.40;99.90
2459;DHT22;1241;50.920;6.936;2023-05-07T14:17:17;25.30;99.90
2459;DHT22;1241;50.920;6.936;2023-05-07T14:19:43;25.10;99.90
2459;DHT22;1241;50.920;6.936;2023-05-07T14:22:09;25.10;99.90
2459;DHT22;1241;50.920;6.936;2023-05-07T14:24:35;25.20;99.90
2459;DHT22;1241;50.920;6.936;2023-05-07T14:27:01;25.30;99.90
2459;DHT22;1241;50.920;6.936;2023-05-07T14:29:27;25.20;99.90
2459;DHT22;1241;50.920;6.936;2023-05-07T14:31:53;25.00;99.90
2459;DHT22;1241;50.920;6.936;2023-05-07T14:34:19;25.00;99.90
2459;DHT22;1241;50.920;6.936;2023-05-07T14:36:44;25.00;99.90
2459;DHT22;1241;50.920;6.936;2023-05-07T14:39:10;24.90;99.90
2459;DHT22;1241;50.920;6.936;2023-05-07T14:41:36;24.80;99.90
2459;DHT22;1241;50.920;6.936;2023-05-07T14:44:01;24.90;99.90
2459;DHT22;1241;50.920;6.936;2023-05-07T14:46:29;24.90;99.90
2459;DHT22;1241;50.920;6.936;2023-05-07T14:48:56;24.80;99.90
2459;DHT22;1241;50.920;6.936;2023-05-07T14:51:22;25.00;99.90
2459;DHT22;1241;50.920;6.936;2023-05-07T14:53:50;25.00;99.90
2459;DHT22;1241;50.920;6.936;2023-05-07T14:56:16;24.90;99.90
2459;DHT22;1241;50.920;6.936;2023-05-07T14:58:42;24.70;99.90
2459;DHT22;1241;50.920;6.936;2023-05-07T15:01:08;24.50;99.90
2459;DHT22;1241;50.920;6.936;2023-05-07T15:03:34;24.30;99.90
2459;DHT22;1241;50.920;6.936;2023-05-07T15:06:00;24.30;99.90
2459;DHT22;1241;50.920;6.936;2023-05-07T15:08:26;24.10;99.90
2459;DHT22;1241;50.920;6.936;2023-05-07T15:10:52;24.10;99.90
2459;DHT22;1241;50.920;6.936;2023-05-07T15:13:17;24.10;99.90
2459;DHT22;1241;50.920;6.936;2023-05-07T15:15:44;23.90;99.90
2459;DHT22;1241;50.920;6.936;2023-05-07T15:18:10;23.70;99.90
2459;DHT22;1241;50.920;6.936;2023-05-07T15:20:36;23.40;99.90
2459;DHT22;1241;50.920;6.936;2023-05-07T15:23:02;23.30;99.90
2459;DHT22;1241;50.920;6.936;2023-05-07T15:25:31;23.40;99.90
2459;DHT22;1241;50.920;6.936;2023-05-07T15:27:58;23.40;99.90
2459;DHT22;1241;50.920;6.936;2023-05-07T15:30:24;23.10;99.90
2459;DHT22;1241;50.920;6.936;2023-05-07T15:32:50;22.90;99.90
2459;DHT22;1241;50.920;6.936;2023-05-07T15:35:16;22.70;99.90
2459;DHT22;1241;50.920;6.936;2023-05-07T15:37:42;22.70;99.90
2459;DHT22;1241;50.920;6.936;2023-05-07T15:40:09;22.60;99.90
2459;DHT22;1241;50.920;6.936;2023-05-07T15:42:36;22.50;99.90
2459;DHT22;1241;50.920;6.936;2023-05-07T15:45:01;22.70;99.90
2459;DHT22;1241;50.920;6.936;2023-05-07T15:47:27;22.60;99.90
2459;DHT22;1241;50.920;6.936;2023-05-07T15:49:53;22.70;99.90
2459;DHT22;1241;50.920;6.936;2023-05-07T15:52:19;22.80;99.90
2459;DHT22;1241;50.920;6.936;2023-05-07T15:54:46;22.80;99.90
2459;DHT22;1241;50.920;6.936;2023-05-07T15:57:11;22.70;99.90
2459;DHT22;1241;50.920;6.936;2023-05-07T15:59:37;22.60;99.90
2459;DHT22;1241;50.920;6.936;2023-05-07T16:02:03;22.40;99.90
2459;DHT22;1241;50.920;6.936;2023-05-07T16:04:29;22.30;99.90
2459;DHT22;1241;50.920;6.936;2023-05-07T16:06:55;22.30;99.90
2459;DHT22;1241;50.920;6.936;2023-05-07T16:09:21;22.40;99.90
2459;DHT22;1241;50.920;6.936;2023-05-07T16:11:47;22.40;99.90
2459;DHT22;1241;50.920;6.936;2023-05-07T16:14:13;22.20;99.90
2459;DHT22;1241;50.920;6.936;2023-05-07T16:16:38;22.00;99.90
2459;DHT22;1241;50.920;6.936;2023-05-07T16:19:05;21.80;99.90